sensor_id;sensor_type;location;lat;lon;timestamp;P1;durP1;ratioP1;P2;durP2;ratioP2
36923;SDS011;22841;50.252;18.688;2023-03-23T00:01:18;62.10;;;30.98;;
36923;SDS011;22841;50.252;18.688;2023-03-23T00:03:48;60.78;;;30.05;;
36923;SDS011;22841;50.252;18.688;2023-03-23T00:06:16;65.85;;;30.85;;
36923;SDS011;22841;50.252;18.688;2023-03-23T00:08:47;68.13;;;32.88;;
36923;SDS011;22841;50.252;18.688;2023-03-23T00:11:17;65.50;;;33.47;;
36923;SDS011;22841;50.252;18.688;2023-03-23T00:13:46;68.63;;;35.30;;
36923;SDS011;22841;50.252;18.688;2023-03-23T00:16:17;72.85;;;36.83;;
36923;SDS011;22841;50.252;18.688;2023-03-23T00:18:45;74.22;;;35.13;;
36923;SDS011;22841;50.252;18.688;2023-03-23T00:21:12;65.45;;;34.67;;
36923;SDS011;22841;50.252;18.688;2023-03-23T00:23:38;67.15;;;33.28;;
36923;SDS011;22841;50.252;18.688;2023-03-23T00:26:05;62.53;;;30.50;;
36923;SDS011;22841;50.252;18.688;2023-03-23T00:28:31;63.75;;;31.30;;
36923;SDS011;22841;50.252;18.688;2023-03-23T00:30:58;56.15;;;28.55;;
36923;SDS011;22841;50.252;18.688;2023-03-23T00:33:27;56.28;;;28.65;;
36923;SDS011;22841;50.252;18.688;2023-03-23T00:35:55;55.83;;;29.88;;
36923;SDS011;22841;50.252;18.688;2023-03-23T00:38:22;47.47;;;26.85;;
36923;SDS011;22841;50.252;18.688;2023-03-23T00:40:49;51.08;;;26.33;;
36923;SDS011;22841;50.252;18.688;2023-03-23T00:43:16;50.28;;;25.58;;
36923;SDS011;22841;50.252;18.688;2023-03-23T00:45:44;46.63;;;23.88;;
36923;SDS011;22841;50.252;18.688;2023-03-23T00:48:21;50.90;;;25.85;;
36923;SDS011;22841;50.252;18.688;2023-03-23T00:50:49;47.40;;;24.50;;
36923;SDS011;22841;50.252;18.688;2023-03-23T00:53:17;49.45;;;25.10;;
36923;SDS011;22841;50.252;18.688;2023-03-23T00:55:44;41.90;;;24.48;;
36923;SDS011;22841;50.252;18.688;2023-03-23T00:58:12;52.17;;;26.02;;
36923;SDS011;22841;50.252;18.688;2023-03-23T01:00:39;49.05;;;26.00;;
36923;SDS011;22841;50.252;18.688;2023-03-23T01:03:06;53.03;;;26.35;;
36923;SDS011;22841;50.252;18.688;2023-03-23T01:05:36;61.53;;;26.02;;
36923;SDS011;22841;50.252;18.688;2023-03-23T01:08:04;47.95;;;24.20;;
36923;SDS011;22841;50.252;18.688;2023-03-23T01:10:31;52.17;;;25.70;;
36923;SDS011;22841;50.252;18.688;2023-03-23T01:12:58;43.60;;;24.60;;
36923;SDS011;22841;50.252;18.688;2023-03-23T01:15:29;42.72;;;23.90;;
36923;SDS011;22841;50.252;18.688;2023-03-23T01:17:55;46.75;;;24.23;;
36923;SDS011;22841;50.252;18.688;2023-03-23T01:20:22;43.50;;;23.85;;
36923;SDS011;22841;50.252;18.688;2023-03-23T01:22:49;43.90;;;24.48;;
36923;SDS011;22841;50.252;18.688;2023-03-23T01:25:16;43.03;;;24.67;;
36923;SDS011;22841;50.252;18.688;2023-03-23T01:27:42;42.65;;;24.50;;
36923;SDS011;22841;50.252;18.688;2023-03-23T01:30:08;50.40;;;25.70;;
36923;SDS011;22841;50.252;18.688;2023-03-23T01:32:37;48.08;;;24.55;;
36923;SDS011;22841;50.252;18.688;2023-03-23T01:35:04;50.58;;;26.65;;
36923;SDS011;22841;50.252;18.688;2023-03-23T01:37:31;50.92;;;26.90;;
36923;SDS011;22841;50.252;18.688;2023-03-23T01:39:57;48.17;;;26.55;;
36923;SDS011;22841;50.252;18.688;2023-03-23T01:42:33;50.72;;;27.90;;
36923;SDS011;22841;50.252;18.688;2023-03-23T01:47:46;57.53;;;29.08;;
36923;SDS011;22841;50.252;18.688;2023-03-23T01:50:15;51.83;;;27.20;;
36923;SDS011;22841;50.252;18.688;2023-03-23T01:52:41;49.03;;;27.63;;
36923;SDS011;22841;50.252;18.688;2023-03-23T01:55:08;50.38;;;25.67;;
36923;SDS011;22841;50.252;18.688;2023-03-23T01:57:34;44.33;;;25.13;;
36923;SDS011;22841;50.252;18.688;2023-03-23T02:00:03;45.50;;;25.35;;
36923;SDS011;22841;50.252;18.688;2023-03-23T02:02:40;50.60;;;25.77;;
36923;SDS011;22841;50.252;18.688;2023-03-23T02:05:13;39.55;;;23.10;;
36923;SDS011;22841;50.252;18.688;2023-03-23T02:07:45;42.42;;;24.05;;
36923;SDS011;22841;50.252;18.688;2023-03-23T02:10:13;46.88;;;24.35;;
36923;SDS011;22841;50.252;18.688;2023-03-23T02:12:39;37.22;;;20.98;;
36923;SDS011;22841;50.252;18.688;2023-03-23T02:15:05;36.92;;;20.33;;
36923;SDS011;22841;50.252;18.688;2023-03-23T02:23:10;43.60;;;18.85;;
36923;SDS011;22841;50.252;18.688;2023-03-23T02:34:24;27.60;;;15.10;;
36923;SDS011;22841;50.252;18.688;2023-03-23T02:37:00;30.70;;;15.80;;
36923;SDS011;22841;50.252;18.688;2023-03-23T02:39:29;31.67;;;17.60;;
36923;SDS011;22841;50.252;18.688;2023-03-23T02:41:57;36.80;;;17.48;;
36923;SDS011;22841;50.252;18.688;2023-03-23T02:44:27;27.15;;;16.58;;
36923;SDS011;22841;50.252;18.688;2023-03-23T02:46:56;30.10;;;17.75;;
36923;SDS011;22841;50.252;18.688;2023-03-23T02:49:25;25.65;;;16.33;;
36923;SDS011;22841;50.252;18.688;2023-03-23T02:51:55;26.08;;;16.23;;
36923;SDS011;22841;50.252;18.688;2023-03-23T02:54:23;32.42;;;16.20;;
36923;SDS011;22841;50.252;18.688;2023-03-23T02:56:51;32.15;;;17.27;;
36923;SDS011;22841;50.252;18.688;2023-03-23T02:59:20;28.73;;;16.73;;
36923;SDS011;22841;50.252;18.688;2023-03-23T03:01:55;28.50;;;17.23;;
36923;SDS011;22841;50.252;18.688;2023-03-23T03:04:23;33.63;;;18.38;;
36923;SDS011;22841;50.252;18.688;2023-03-23T03:07:15;32.92;;;19.00;;
36923;SDS011;22841;50.252;18.688;2023-03-23T03:10:13;32.17;;;18.98;;
36923;SDS011;22841;50.252;18.688;2023-03-23T03:15:17;34.13;;;19.70;;
36923;SDS011;22841;50.252;18.688;2023-03-23T03:18:17;31.08;;;18.00;;
36923;SDS011;22841;50.252;18.688;2023-03-23T03:20:45;30.00;;;19.17;;
36923;SDS011;22841;50.252;18.688;2023-03-23T03:23:15;29.77;;;18.15;;
36923;SDS011;22841;50.252;18.688;2023-03-23T03:25:42;32.58;;;18.10;;
36923;SDS011;22841;50.252;18.688;2023-03-23T03:28:14;30.20;;;18.67;;
36923;SDS011;22841;50.252;18.688;2023-03-23T03:30:42;34.28;;;19.33;;
36923;SDS011;22841;50.252;18.688;2023-03-23T03:33:10;34.97;;;19.27;;
36923;SDS011;22841;50.252;18.688;2023-03-23T03:35:38;29.85;;;19.10;;
36923;SDS011;22841;50.252;18.688;2023-03-23T03:38:07;28.48;;;19.08;;
36923;SDS011;22841;50.252;18.688;2023-03-23T03:40:35;36.67;;;20.90;;
36923;SDS011;22841;50.252;18.688;2023-03-23T03:43:01;28.67;;;18.08;;
36923;SDS011;22841;50.252;18.688;2023-03-23T03:45:28;26.98;;;17.17;;
36923;SDS011;22841;50.252;18.688;2023-03-23T03:47:54;37.97;;;20.85;;
36923;SDS011;22841;50.252;18.688;2023-03-23T03:50:20;34.08;;;18.63;;
36923;SDS011;22841;50.252;18.688;2023-03-23T03:52:46;36.00;;;18.38;;
36923;SDS011;22841;50.252;18.688;2023-03-23T03:55:13;25.92;;;17.95;;
36923;SDS011;22841;50.252;18.688;2023-03-23T03:57:40;31.40;;;17.40;;
36923;SDS011;22841;50.252;18.688;2023-03-23T04:00:07;27.48;;;16.88;;
36923;SDS011;22841;50.252;18.688;2023-03-23T04:02:44;27.83;;;16.52;;
36923;SDS011;22841;50.252;18.688;2023-03-23T04:05:23;26.80;;;16.17;;
36923;SDS011;22841;50.252;18.688;2023-03-23T04:07:49;29.35;;;15.82;;
36923;SDS011;22841;50.252;18.688;2023-03-23T04:10:17;25.17;;;16.10;;
36923;SDS011;22841;50.252;18.688;2023-03-23T04:12:47;31.80;;;16.10;;
36923;SDS011;22841;50.252;18.688;2023-03-23T04:15:14;27.92;;;16.42;;
36923;SDS011;22841;50.252;18.688;2023-03-23T04:17:41;23.05;;;15.38;;
36923;SDS011;22841;50.252;18.688;2023-03-23T04:20:08;30.95;;;16.40;;
36923;SDS011;22841;50.252;18.688;2023-03-23T04:22:38;25.55;;;17.67;;
36923;SDS011;22841;50.252;18.688;2023-03-23T04:25:09;28.58;;;16.48;;
36923;SDS011;22841;50.252;18.688;2023-03-23T04:27:38;24.23;;;14.13;;
36923;SDS011;22841;50.252;18.688;2023-03-23T04:30:09;24.05;;;15.27;;
36923;SDS011;22841;50.252;18.688;2023-03-23T04:32:37;26.80;;;15.60;;
36923;SDS011;22841;50.252;18.688;2023-03-23T04:35:08;23.63;;;15.30;;
36923;SDS011;22841;50.252;18.688;2023-03-23T04:37:36;26.23;;;16.33;;
36923;SDS011;22841;50.252;18.688;2023-03-23T04:40:04;23.00;;;14.57;;
36923;SDS011;22841;50.252;18.688;2023-03-23T04:42:32;25.85;;;16.02;;
36923;SDS011;22841;50.252;18.688;2023-03-23T04:44:58;30.42;;;16.10;;
36923;SDS011;22841;50.252;18.688;2023-03-23T04:47:25;32.78;;;16.15;;
36923;SDS011;22841;50.252;18.688;2023-03-23T04:49:56;28.40;;;15.45;;
36923;SDS011;22841;50.252;18.688;2023-03-23T04:52:25;27.00;;;15.25;;
36923;SDS011;22841;50.252;18.688;2023-03-23T04:54:54;28.30;;;14.57;;
36923;SDS011;22841;50.252;18.688;2023-03-23T04:57:21;24.02;;;13.88;;
36923;SDS011;22841;50.252;18.688;2023-03-23T04:59:48;27.33;;;14.65;;
36923;SDS011;22841;50.252;18.688;2023-03-23T05:02:14;24.08;;;14.23;;
36923;SDS011;22841;50.252;18.688;2023-03-23T05:04:42;36.53;;;15.88;;
36923;SDS011;22841;50.252;18.688;2023-03-23T05:07:08;29.92;;;15.68;;
36923;SDS011;22841;50.252;18.688;2023-03-23T05:09:36;29.13;;;15.88;;
36923;SDS011;22841;50.252;18.688;2023-03-23T05:12:06;26.50;;;16.33;;
36923;SDS011;22841;50.252;18.688;2023-03-23T05:14:34;27.98;;;16.67;;
36923;SDS011;22841;50.252;18.688;2023-03-23T05:17:00;32.45;;;16.70;;
36923;SDS011;22841;50.252;18.688;2023-03-23T05:19:26;31.63;;;15.75;;
36923;SDS011;22841;50.252;18.688;2023-03-23T05:21:53;26.60;;;14.90;;
36923;SDS011;22841;50.252;18.688;2023-03-23T05:24:22;28.60;;;15.10;;
36923;SDS011;22841;50.252;18.688;2023-03-23T05:26:49;34.63;;;15.73;;
36923;SDS011;22841;50.252;18.688;2023-03-23T05:29:18;34.13;;;15.88;;
36923;SDS011;22841;50.252;18.688;2023-03-23T05:31:44;28.42;;;15.93;;
36923;SDS011;22841;50.252;18.688;2023-03-23T05:34:10;29.13;;;15.70;;
36923;SDS011;22841;50.252;18.688;2023-03-23T05:36:37;29.75;;;16.25;;
36923;SDS011;22841;50.252;18.688;2023-03-23T05:39:03;36.67;;;16.33;;
36923;SDS011;22841;50.252;18.688;2023-03-23T05:41:29;25.00;;;15.43;;
36923;SDS011;22841;50.252;18.688;2023-03-23T05:43:55;28.90;;;15.20;;
36923;SDS011;22841;50.252;18.688;2023-03-23T05:46:21;21.98;;;13.93;;
36923;SDS011;22841;50.252;18.688;2023-03-23T05:48:47;25.58;;;14.85;;
36923;SDS011;22841;50.252;18.688;2023-03-23T05:51:13;29.20;;;15.38;;
36923;SDS011;22841;50.252;18.688;2023-03-23T05:53:39;27.13;;;13.80;;
36923;SDS011;22841;50.252;18.688;2023-03-23T05:56:06;27.80;;;14.27;;
36923;SDS011;22841;50.252;18.688;2023-03-23T05:58:32;28.40;;;14.82;;
36923;SDS011;22841;50.252;18.688;2023-03-23T06:00:58;27.02;;;15.32;;
36923;SDS011;22841;50.252;18.688;2023-03-23T06:03:24;30.77;;;15.18;;
36923;SDS011;22841;50.252;18.688;2023-03-23T06:05:50;27.02;;;15.73;;
36923;SDS011;22841;50.252;18.688;2023-03-23T06:08:17;28.98;;;15.07;;
36923;SDS011;22841;50.252;18.688;2023-03-23T06:10:44;27.08;;;14.95;;
36923;SDS011;22841;50.252;18.688;2023-03-23T06:13:10;26.95;;;14.02;;
36923;SDS011;22841;50.252;18.688;2023-03-23T06:15:36;26.23;;;14.10;;
36923;SDS011;22841;50.252;18.688;2023-03-23T06:18:03;24.52;;;14.20;;
36923;SDS011;22841;50.252;18.688;2023-03-23T06:20:29;27.88;;;12.52;;
36923;SDS011;22841;50.252;18.688;2023-03-23T06:22:55;21.80;;;12.88;;
36923;SDS011;22841;50.252;18.688;2023-03-23T06:25:22;21.92;;;12.75;;
36923;SDS011;22841;50.252;18.688;2023-03-23T06:27:49;26.95;;;14.38;;
36923;SDS011;22841;50.252;18.688;2023-03-23T06:30:17;29.20;;;13.98;;
36923;SDS011;22841;50.252;18.688;2023-03-23T06:32:43;22.42;;;12.88;;
36923;SDS011;22841;50.252;18.688;2023-03-23T06:35:13;29.77;;;13.45;;
36923;SDS011;22841;50.252;18.688;2023-03-23T06:37:40;28.10;;;14.18;;
36923;SDS011;22841;50.252;18.688;2023-03-23T06:40:06;26.58;;;13.65;;
36923;SDS011;22841;50.252;18.688;2023-03-23T06:42:35;27.90;;;13.95;;
36923;SDS011;22841;50.252;18.688;2023-03-23T06:45:03;29.17;;;14.15;;
36923;SDS011;22841;50.252;18.688;2023-03-23T06:47:30;26.88;;;14.50;;
36923;SDS011;22841;50.252;18.688;2023-03-23T06:49:57;25.50;;;14.02;;
36923;SDS011;22841;50.252;18.688;2023-03-23T06:52:24;27.17;;;14.07;;
36923;SDS011;22841;50.252;18.688;2023-03-23T06:54:51;29.52;;;14.95;;
36923;SDS011;22841;50.252;18.688;2023-03-23T06:57:18;33.17;;;16.17;;
36923;SDS011;22841;50.252;18.688;2023-03-23T06:59:45;32.30;;;15.60;;
36923;SDS011;22841;50.252;18.688;2023-03-23T07:02:12;27.92;;;15.52;;
36923;SDS011;22841;50.252;18.688;2023-03-23T07:04:39;34.20;;;14.57;;
36923;SDS011;22841;50.252;18.688;2023-03-23T07:07:09;31.45;;;14.90;;
36923;SDS011;22841;50.252;18.688;2023-03-23T07:09:38;27.55;;;13.43;;
36923;SDS011;22841;50.252;18.688;2023-03-23T07:12:05;25.35;;;13.60;;
36923;SDS011;22841;50.252;18.688;2023-03-23T07:14:31;25.13;;;14.00;;
36923;SDS011;22841;50.252;18.688;2023-03-23T07:16:57;24.20;;;13.50;;
36923;SDS011;22841;50.252;18.688;2023-03-23T07:19:23;22.63;;;13.77;;
36923;SDS011;22841;50.252;18.688;2023-03-23T07:21:50;31.08;;;14.13;;
36923;SDS011;22841;50.252;18.688;2023-03-23T07:24:16;28.85;;;14.10;;
36923;SDS011;22841;50.252;18.688;2023-03-23T07:26:43;28.25;;;14.25;;
36923;SDS011;22841;50.252;18.688;2023-03-23T07:29:10;33.08;;;15.15;;
36923;SDS011;22841;50.252;18.688;2023-03-23T07:31:36;28.17;;;14.45;;
36923;SDS011;22841;50.252;18.688;2023-03-23T07:34:02;32.17;;;14.77;;
36923;SDS011;22841;50.252;18.688;2023-03-23T07:36:29;29.77;;;15.57;;
36923;SDS011;22841;50.252;18.688;2023-03-23T07:38:55;30.45;;;16.27;;
36923;SDS011;22841;50.252;18.688;2023-03-23T07:41:21;32.80;;;15.18;;
36923;SDS011;22841;50.252;18.688;2023-03-23T07:43:48;32.63;;;16.58;;
36923;SDS011;22841;50.252;18.688;2023-03-23T07:46:14;32.83;;;14.32;;
36923;SDS011;22841;50.252;18.688;2023-03-23T07:48:40;28.95;;;14.90;;
36923;SDS011;22841;50.252;18.688;2023-03-23T07:51:06;26.02;;;14.40;;
36923;SDS011;22841;50.252;18.688;2023-03-23T07:53:33;25.23;;;13.20;;
36923;SDS011;22841;50.252;18.688;2023-03-23T07:55:59;24.98;;;14.05;;
36923;SDS011;22841;50.252;18.688;2023-03-23T07:58:26;23.15;;;12.98;;
36923;SDS011;22841;50.252;18.688;2023-03-23T08:00:53;29.63;;;12.43;;
36923;SDS011;22841;50.252;18.688;2023-03-23T08:03:22;24.25;;;11.98;;
36923;SDS011;22841;50.252;18.688;2023-03-23T08:05:48;25.02;;;11.75;;
36923;SDS011;22841;50.252;18.688;2023-03-23T08:08:14;28.25;;;12.27;;
36923;SDS011;22841;50.252;18.688;2023-03-23T08:10:40;23.33;;;11.80;;
36923;SDS011;22841;50.252;18.688;2023-03-23T08:13:06;21.38;;;11.35;;
36923;SDS011;22841;50.252;18.688;2023-03-23T08:15:32;28.85;;;11.13;;
36923;SDS011;22841;50.252;18.688;2023-03-23T08:18:02;23.52;;;10.98;;
36923;SDS011;22841;50.252;18.688;2023-03-23T08:20:29;24.23;;;11.20;;
36923;SDS011;22841;50.252;18.688;2023-03-23T08:22:55;22.40;;;9.77;;
36923;SDS011;22841;50.252;18.688;2023-03-23T08:25:22;22.23;;;9.48;;
36923;SDS011;22841;50.252;18.688;2023-03-23T08:27:52;21.30;;;9.57;;
36923;SDS011;22841;50.252;18.688;2023-03-23T08:30:20;17.67;;;9.25;;
36923;SDS011;22841;50.252;18.688;2023-03-23T08:32:48;17.17;;;9.18;;
36923;SDS011;22841;50.252;18.688;2023-03-23T08:35:15;17.85;;;10.15;;
36923;SDS011;22841;50.252;18.688;2023-03-23T08:37:42;23.20;;;9.25;;
36923;SDS011;22841;50.252;18.688;2023-03-23T08:40:09;16.77;;;9.05;;
36923;SDS011;22841;50.252;18.688;2023-03-23T08:42:37;21.98;;;9.98;;
36923;SDS011;22841;50.252;18.688;2023-03-23T08:45:05;20.73;;;8.50;;
36923;SDS011;22841;50.252;18.688;2023-03-23T08:47:33;21.00;;;8.60;;
36923;SDS011;22841;50.252;18.688;2023-03-23T08:50:01;13.80;;;7.82;;
36923;SDS011;22841;50.252;18.688;2023-03-23T08:52:28;21.92;;;7.43;;
36923;SDS011;22841;50.252;18.688;2023-03-23T08:54:55;15.57;;;7.90;;
36923;SDS011;22841;50.252;18.688;2023-03-23T08:57:22;20.83;;;7.53;;
36923;SDS011;22841;50.252;18.688;2023-03-23T08:59:50;17.10;;;8.75;;
36923;SDS011;22841;50.252;18.688;2023-03-23T09:02:16;18.25;;;6.80;;
36923;SDS011;22841;50.252;18.688;2023-03-23T09:04:42;17.20;;;6.63;;
36923;SDS011;22841;50.252;18.688;2023-03-23T09:07:09;11.02;;;6.38;;
36923;SDS011;22841;50.252;18.688;2023-03-23T09:09:37;14.88;;;6.53;;
36923;SDS011;22841;50.252;18.688;2023-03-23T09:12:07;18.05;;;5.85;;
36923;SDS011;22841;50.252;18.688;2023-03-23T09:14:34;14.13;;;6.57;;
36923;SDS011;22841;50.252;18.688;2023-03-23T09:17:02;10.52;;;6.20;;
36923;SDS011;22841;50.252;18.688;2023-03-23T09:19:32;15.98;;;6.05;;
36923;SDS011;22841;50.252;18.688;2023-03-23T09:21:59;10.90;;;5.35;;
36923;SDS011;22841;50.252;18.688;2023-03-23T09:24:26;13.82;;;6.10;;
36923;SDS011;22841;50.252;18.688;2023-03-23T09:26:52;11.93;;;5.68;;
36923;SDS011;22841;50.252;18.688;2023-03-23T09:29:18;20.10;;;6.32;;
36923;SDS011;22841;50.252;18.688;2023-03-23T09:31:46;15.68;;;6.25;;
36923;SDS011;22841;50.252;18.688;2023-03-23T09:34:13;9.77;;;5.93;;
36923;SDS011;22841;50.252;18.688;2023-03-23T09:36:41;10.57;;;5.25;;
36923;SDS011;22841;50.252;18.688;2023-03-23T09:39:08;14.80;;;5.85;;
36923;SDS011;22841;50.252;18.688;2023-03-23T09:41:57;11.85;;;5.70;;
36923;SDS011;22841;50.252;18.688;2023-03-23T09:49:55;12.70;;;5.88;;
36923;SDS011;22841;50.252;18.688;2023-03-23T09:52:27;13.00;;;6.20;;
36923;SDS011;22841;50.252;18.688;2023-03-23T09:55:10;9.18;;;5.18;;
36923;SDS011;22841;50.252;18.688;2023-03-23T09:57:45;11.27;;;5.63;;
36923;SDS011;22841;50.252;18.688;2023-03-23T10:00:40;11.10;;;6.20;;
36923;SDS011;22841;50.252;18.688;2023-03-23T10:03:18;14.38;;;5.78;;
36923;SDS011;22841;50.252;18.688;2023-03-23T10:05:49;11.40;;;6.20;;
36923;SDS011;22841;50.252;18.688;2023-03-23T10:08:18;9.73;;;5.32;;
36923;SDS011;22841;50.252;18.688;2023-03-23T10:11:04;16.48;;;5.63;;
36923;SDS011;22841;50.252;18.688;2023-03-23T10:16:28;14.17;;;5.67;;
36923;SDS011;22841;50.252;18.688;2023-03-23T10:21:54;9.60;;;5.13;;
36923;SDS011;22841;50.252;18.688;2023-03-23T10:24:27;11.02;;;5.60;;
36923;SDS011;22841;50.252;18.688;2023-03-23T10:27:04;9.00;;;4.97;;
36923;SDS011;22841;50.252;18.688;2023-03-23T10:30:03;10.48;;;4.85;;
36923;SDS011;22841;50.252;18.688;2023-03-23T10:32:39;14.98;;;5.07;;
36923;SDS011;22841;50.252;18.688;2023-03-23T10:35:09;9.75;;;5.00;;
36923;SDS011;22841;50.252;18.688;2023-03-23T10:37:44;9.50;;;4.65;;
36923;SDS011;22841;50.252;18.688;2023-03-23T10:40:19;10.65;;;5.55;;
36923;SDS011;22841;50.252;18.688;2023-03-23T10:42:49;8.60;;;5.13;;
36923;SDS011;22841;50.252;18.688;2023-03-23T10:47:49;9.57;;;5.00;;
36923;SDS011;22841;50.252;18.688;2023-03-23T10:50:37;10.05;;;5.38;;
36923;SDS011;22841;50.252;18.688;2023-03-23T10:53:13;12.02;;;5.45;;
36923;SDS011;22841;50.252;18.688;2023-03-23T10:55:46;9.75;;;5.28;;
36923;SDS011;22841;50.252;18.688;2023-03-23T10:58:22;8.10;;;5.20;;
36923;SDS011;22841;50.252;18.688;2023-03-23T11:00:50;11.13;;;5.60;;
36923;SDS011;22841;50.252;18.688;2023-03-23T11:03:22;10.75;;;5.40;;
36923;SDS011;22841;50.252;18.688;2023-03-23T11:05:52;9.43;;;4.85;;
36923;SDS011;22841;50.252;18.688;2023-03-23T11:08:23;10.20;;;5.53;;
36923;SDS011;22841;50.252;18.688;2023-03-23T11:11:18;9.15;;;5.05;;
36923;SDS011;22841;50.252;18.688;2023-03-23T11:13:45;10.75;;;5.65;;
36923;SDS011;22841;50.252;18.688;2023-03-23T11:16:25;8.40;;;5.10;;
36923;SDS011;22841;50.252;18.688;2023-03-23T11:18:54;10.45;;;5.38;;
36923;SDS011;22841;50.252;18.688;2023-03-23T11:21:23;15.38;;;6.07;;
36923;SDS011;22841;50.252;18.688;2023-03-23T11:23:51;9.60;;;5.28;;
36923;SDS011;22841;50.252;18.688;2023-03-23T11:26:25;10.82;;;5.32;;
36923;SDS011;22841;50.252;18.688;2023-03-23T11:31:46;9.40;;;5.03;;
36923;SDS011;22841;50.252;18.688;2023-03-23T11:34:24;7.07;;;5.10;;
36923;SDS011;22841;50.252;18.688;2023-03-23T11:37:06;14.32;;;6.05;;
36923;SDS011;22841;50.252;18.688;2023-03-23T11:39:55;10.77;;;5.68;;
36923;SDS011;22841;50.252;18.688;2023-03-23T11:50:54;12.25;;;5.63;;
36923;SDS011;22841;50.252;18.688;2023-03-23T11:58:55;13.68;;;6.03;;
36923;SDS011;22841;50.252;18.688;2023-03-23T12:06:32;8.55;;;5.68;;
36923;SDS011;22841;50.252;18.688;2023-03-23T12:14:58;9.35;;;5.40;;
36923;SDS011;22841;50.252;18.688;2023-03-23T12:20:23;9.45;;;5.95;;
36923;SDS011;22841;50.252;18.688;2023-03-23T12:27:55;9.07;;;5.10;;
36923;SDS011;22841;50.252;18.688;2023-03-23T12:41:47;10.98;;;5.40;;
36923;SDS011;22841;50.252;18.688;2023-03-23T12:44:24;10.25;;;6.25;;
36923;SDS011;22841;50.252;18.688;2023-03-23T12:50:03;10.73;;;5.25;;
36923;SDS011;22841;50.252;18.688;2023-03-23T12:53:28;11.73;;;5.00;;
36923;SDS011;22841;50.252;18.688;2023-03-23T12:58:46;13.25;;;4.82;;
36923;SDS011;22841;50.252;18.688;2023-03-23T13:01:20;11.43;;;5.28;;
36923;SDS011;22841;50.252;18.688;2023-03-23T13:06:28;7.53;;;4.93;;
36923;SDS011;22841;50.252;18.688;2023-03-23T13:09:00;8.95;;;5.28;;
36923;SDS011;22841;50.252;18.688;2023-03-23T13:11:38;17.25;;;5.00;;
36923;SDS011;22841;50.252;18.688;2023-03-23T13:17:03;9.38;;;4.85;;
36923;SDS011;22841;50.252;18.688;2023-03-23T13:28:27;8.80;;;4.25;;
36923;SDS011;22841;50.252;18.688;2023-03-23T13:30:59;9.93;;;4.60;;
36923;SDS011;22841;50.252;18.688;2023-03-23T13:33:37;7.68;;;4.15;;
36923;SDS011;22841;50.252;18.688;2023-03-23T13:36:04;8.57;;;4.65;;
36923;SDS011;22841;50.252;18.688;2023-03-23T13:38:34;11.88;;;4.93;;
36923;SDS011;22841;50.252;18.688;2023-03-23T13:41:09;10.98;;;5.13;;
36923;SDS011;22841;50.252;18.688;2023-03-23T13:43:39;10.68;;;4.45;;
36923;SDS011;22841;50.252;18.688;2023-03-23T13:46:11;10.20;;;4.28;;
36923;SDS011;22841;50.252;18.688;2023-03-23T14:01:54;10.70;;;4.93;;
36923;SDS011;22841;50.252;18.688;2023-03-23T14:04:22;15.77;;;5.78;;
36923;SDS011;22841;50.252;18.688;2023-03-23T14:06:56;12.65;;;5.65;;
36923;SDS011;22841;50.252;18.688;2023-03-23T14:09:27;9.30;;;5.20;;
36923;SDS011;22841;50.252;18.688;2023-03-23T14:14:32;7.03;;;5.03;;
36923;SDS011;22841;50.252;18.688;2023-03-23T14:17:10;9.68;;;4.95;;
36923;SDS011;22841;50.252;18.688;2023-03-23T14:19:48;10.57;;;6.25;;
36923;SDS011;22841;50.252;18.688;2023-03-23T14:22:18;10.98;;;5.50;;
36923;SDS011;22841;50.252;18.688;2023-03-23T14:24:47;8.85;;;5.05;;
36923;SDS011;22841;50.252;18.688;2023-03-23T14:27:18;8.90;;;5.38;;
36923;SDS011;22841;50.252;18.688;2023-03-23T14:29:46;8.85;;;5.30;;
36923;SDS011;22841;50.252;18.688;2023-03-23T14:32:29;9.05;;;4.93;;
36923;SDS011;22841;50.252;18.688;2023-03-23T14:34:58;12.23;;;5.55;;
36923;SDS011;22841;50.252;18.688;2023-03-23T14:37:26;15.18;;;5.72;;
36923;SDS011;22841;50.252;18.688;2023-03-23T14:39:53;12.48;;;5.72;;
36923;SDS011;22841;50.252;18.688;2023-03-23T14:42:26;13.68;;;5.88;;
36923;SDS011;22841;50.252;18.688;2023-03-23T14:44:55;10.55;;;5.78;;
36923;SDS011;22841;50.252;18.688;2023-03-23T14:47:27;23.75;;;5.70;;
36923;SDS011;22841;50.252;18.688;2023-03-23T14:49:59;10.50;;;5.57;;
36923;SDS011;22841;50.252;18.688;2023-03-23T14:52:28;11.63;;;5.72;;
36923;SDS011;22841;50.252;18.688;2023-03-23T14:57:42;10.90;;;6.43;;
36923;SDS011;22841;50.252;18.688;2023-03-23T15:00:22;11.25;;;6.18;;
36923;SDS011;22841;50.252;18.688;2023-03-23T15:02:53;13.32;;;6.32;;
36923;SDS011;22841;50.252;18.688;2023-03-23T15:05:26;14.70;;;6.57;;
36923;SDS011;22841;50.252;18.688;2023-03-23T15:07:55;13.70;;;7.00;;
36923;SDS011;22841;50.252;18.688;2023-03-23T15:10:25;14.90;;;6.45;;
36923;SDS011;22841;50.252;18.688;2023-03-23T15:12:52;15.02;;;5.95;;
36923;SDS011;22841;50.252;18.688;2023-03-23T15:17:57;14.88;;;6.40;;
36923;SDS011;22841;50.252;18.688;2023-03-23T15:20:26;19.25;;;8.73;;
36923;SDS011;22841;50.252;18.688;2023-03-23T15:22:53;16.10;;;7.93;;
36923;SDS011;22841;50.252;18.688;2023-03-23T15:25:28;16.67;;;7.57;;
36923;SDS011;22841;50.252;18.688;2023-03-23T15:30:46;16.08;;;7.55;;
36923;SDS011;22841;50.252;18.688;2023-03-23T15:33:17;23.88;;;7.10;;
36923;SDS011;22841;50.252;18.688;2023-03-23T15:35:51;14.63;;;7.85;;
36923;SDS011;22841;50.252;18.688;2023-03-23T15:38:26;22.58;;;6.80;;
36923;SDS011;22841;50.252;18.688;2023-03-23T15:40:57;15.02;;;7.10;;
36923;SDS011;22841;50.252;18.688;2023-03-23T15:43:25;17.13;;;7.55;;
36923;SDS011;22841;50.252;18.688;2023-03-23T15:48:32;16.20;;;8.10;;
36923;SDS011;22841;50.252;18.688;2023-03-23T15:51:10;24.40;;;8.07;;
36923;SDS011;22841;50.252;18.688;2023-03-23T15:53:38;22.88;;;8.65;;
36923;SDS011;22841;50.252;18.688;2023-03-23T15:56:06;17.75;;;8.68;;
36923;SDS011;22841;50.252;18.688;2023-03-23T15:58:34;17.67;;;8.25;;
36923;SDS011;22841;50.252;18.688;2023-03-23T16:01:05;19.73;;;8.02;;
36923;SDS011;22841;50.252;18.688;2023-03-23T16:03:41;13.98;;;7.20;;
36923;SDS011;22841;50.252;18.688;2023-03-23T16:06:18;12.00;;;7.28;;
36923;SDS011;22841;50.252;18.688;2023-03-23T16:08:49;11.80;;;7.50;;
36923;SDS011;22841;50.252;18.688;2023-03-23T16:11:16;16.67;;;7.03;;
36923;SDS011;22841;50.252;18.688;2023-03-23T16:13:43;21.42;;;8.10;;
36923;SDS011;22841;50.252;18.688;2023-03-23T16:16:13;18.33;;;8.35;;
36923;SDS011;22841;50.252;18.688;2023-03-23T16:18:42;20.40;;;7.55;;
36923;SDS011;22841;50.252;18.688;2023-03-23T16:21:08;14.70;;;8.15;;
36923;SDS011;22841;50.252;18.688;2023-03-23T16:23:34;14.20;;;8.35;;
36923;SDS011;22841;50.252;18.688;2023-03-23T16:26:01;15.82;;;9.13;;
36923;SDS011;22841;50.252;18.688;2023-03-23T16:28:27;16.40;;;8.20;;
36923;SDS011;22841;50.252;18.688;2023-03-23T16:30:53;14.60;;;8.15;;
36923;SDS011;22841;50.252;18.688;2023-03-23T16:33:19;19.92;;;10.63;;
36923;SDS011;22841;50.252;18.688;2023-03-23T16:35:45;14.73;;;9.00;;
36923;SDS011;22841;50.252;18.688;2023-03-23T16:38:12;26.27;;;10.52;;